Time;durP1;ratioP1;P1;durP2;ratioP2;P2;SDS_P1;SDS_P2;PMS_P1;PMS_P2;Temp;Humidity;BMP_temperature;BMP_pressure;BME280_temperature;BME280_humidity;BME280_pressure;Samples;Min_cycle;Max_cycle;Signal;HPM_P1;HPM_P2
2023/08/01 00:00:32;;;;;;;9.80;8.63;;;17.60;99.90;;;;;;5039776;28;20447;-80
2023/08/01 00:02:59;;;;;;;9.00;8.20;;;17.60;99.90;;;;;;5037032;28;20526;-80
2023/08/01 00:05:26;;;;;;;13.43;9.80;;;17.70;99.90;;;;;;5038030;28;20455;-80
2023/08/01 00:07:53;;;;;;;12.33;10.80;;;17.70;99.90;;;;;;5039226;28;20469;-81
2023/08/01 00:10:20;;;;;;;12.43;11.33;;;17.70;99.90;;;;;;5040470;28;20453;-79
2023/08/01 00:12:48;;;;;;;10.80;9.80;;;17.60;99.90;;;;;;5039128;28;20563;-81
2023/08/01 00:15:15;;;;;;;12.50;11.40;;;17.70;99.90;;;;;;5035129;28;20514;-81
2023/08/01 00:17:42;;;;;;;13.37;12.13;;;17.60;99.90;;;;;;5044360;28;20448;-81
2023/08/01 00:20:10;;;;;;;13.83;12.43;;;17.60;99.90;;;;;;5056652;28;20482;-81
2023/08/01 00:22:36;;;;;;;12.37;11.07;;;17.50;99.90;;;;;;5040848;28;20461;-81
2023/08/01 00:25:03;;;;;;;11.87;10.87;;;17.50;99.90;;;;;;5039755;28;20443;-79
2023/08/01 00:27:32;;;;;;;12.30;11.03;;;17.50;99.90;;;;;;5055704;28;20422;-79
2023/08/01 00:30:00;;;;;;;14.83;12.40;;;17.50;99.90;;;;;;5064296;28;20462;-79
2023/08/01 00:32:27;;;;;;;13.13;11.97;;;17.50;99.90;;;;;;5057092;28;20428;-79
2023/08/01 00:34:53;;;;;;;12.80;11.50;;;17.50;99.90;;;;;;5056205;28;20431;-79
2023/08/01 00:37:20;;;;;;;13.13;11.47;;;17.50;99.90;;;;;;5042286;28;20443;-80
2023/08/01 00:39:47;;;;;;;10.83;9.93;;;17.40;99.90;;;;;;5037125;28;20482;-79
2023/08/01 00:42:14;;;;;;;10.53;9.53;;;17.40;99.90;;;;;;5037946;28;20443;-81
2023/08/01 00:44:41;;;;;;;10.87;9.80;;;17.40;99.90;;;;;;5038961;28;20494;-81
2023/08/01 00:47:09;;;;;;;12.40;11.20;;;17.40;99.90;;;;;;5044758;28;20439;-81
2023/08/01 00:49:36;;;;;;;14.87;13.37;;;17.30;99.90;;;;;;5041259;28;20493;-81
2023/08/01 00:52:03;;;;;;;12.40;11.07;;;17.30;99.90;;;;;;5040827;28;20457;-82
2023/08/01 00:54:35;;;;;;;12.90;11.20;;;17.30;99.90;;;;;;5047118;28;20479;-81
2023/08/01 00:57:03;;;;;;;11.33;10.13;;;17.30;99.90;;;;;;5041562;28;20879;-81
2023/08/01 00:59:30;;;;;;;11.67;10.47;;;17.20;99.90;;;;;;5041732;28;20469;-82
2023/08/01 01:01:57;;;;;;;11.43;9.80;;;17.20;99.90;;;;;;5046954;28;20942;-81
2023/08/01 01:04:25;;;;;;;15.43;11.67;;;17.20;99.90;;;;;;5040615;28;20514;-81
2023/08/01 01:06:58;;;;;;;10.30;9.30;;;17.10;99.90;;;;;;5045639;28;20454;-81
2023/08/01 01:09:25;;;;;;;14.80;12.27;;;17.20;99.90;;;;;;5042340;28;20553;-83
2023/08/01 01:11:51;;;;;;;13.03;10.63;;;17.20;99.90;;;;;;5041767;28;20961;-81
2023/08/01 01:14:18;;;;;;;14.90;11.50;;;17.20;99.90;;;;;;5041786;28;20485;-82
2023/08/01 01:16:45;;;;;;;16.37;12.60;;;17.10;99.90;;;;;;5042349;28;20522;-80
2023/08/01 01:19:15;;;;;;;13.20;11.20;;;17.10;99.90;;;;;;5050312;28;20892;-81
2023/08/01 01:22:21;;;;;;;11.73;10.53;;;17.10;99.90;;;;;;5043135;28;20510;-81
2023/08/01 01:24:49;;;;;;;12.83;11.53;;;16.90;99.90;;;;;;5041072;28;20479;-80
2023/08/01 01:27:20;;;;;;;13.87;11.97;;;17.00;99.90;;;;;;5042383;28;20943;-81
2023/08/01 01:29:49;;;;;;;16.37;13.97;;;17.00;99.90;;;;;;5046669;28;20937;-80
2023/08/01 01:32:16;;;;;;;16.20;13.23;;;17.00;99.90;;;;;;5035877;28;20450;-81
2023/08/01 01:34:44;;;;;;;14.63;13.13;;;17.00;99.90;;;;;;5046208;28;20506;-81
2023/08/01 01:37:11;;;;;;;15.87;12.83;;;17.00;99.90;;;;;;5047829;28;20529;-81
2023/08/01 01:39:39;;;;;;;16.37;13.03;;;17.00;99.90;;;;;;5050832;28;20501;-81
2023/08/01 01:42:07;;;;;;;14.03;11.73;;;17.00;99.90;;;;;;5045595;28;20445;-81
2023/08/01 01:44:34;;;;;;;14.63;12.97;;;17.00;99.90;;;;;;5042976;28;20482;-81
2023/08/01 01:47:01;;;;;;;12.47;11.17;;;17.00;99.90;;;;;;5042561;28;20480;-81
2023/08/01 01:49:29;;;;;;;13.03;11.67;;;17.00;99.90;;;;;;5044355;28;20543;-81
2023/08/01 01:51:56;;;;;;;17.83;14.43;;;17.00;99.90;;;;;;5044193;28;20451;-81
2023/08/01 01:54:23;;;;;;;13.10;11.80;;;17.10;99.90;;;;;;5050667;28;20437;-82
2023/08/01 01:56:51;;;;;;;13.30;11.73;;;17.00;99.90;;;;;;5041359;28;20446;-80
2023/08/01 01:59:18;;;;;;;14.90;12.50;;;17.00;99.90;;;;;;5041235;28;20473;-81
2023/08/01 02:01:45;;;;;;;13.30;11.20;;;17.00;99.90;;;;;;5037611;28;20458;-78
2023/08/01 02:04:11;;;;;;;14.30;12.17;;;17.10;99.90;;;;;;5042430;28;20476;-80
2023/08/01 02:06:38;;;;;;;15.10;12.23;;;17.00;99.90;;;;;;5043158;28;20437;-80
2023/08/01 02:09:05;;;;;;;14.67;11.20;;;17.00;99.90;;;;;;5044718;28;21237;-81
2023/08/01 02:11:32;;;;;;;16.20;12.70;;;17.00;99.90;;;;;;5050139;28;20542;-81
2023/08/01 02:14:01;;;;;;;17.47;12.07;;;17.00;99.90;;;;;;5048959;28;20541;-80
2023/08/01 02:16:28;;;;;;;12.20;11.00;;;17.00;99.90;;;;;;5057186;28;20444;-80
2023/08/01 02:18:55;;;;;;;11.00;9.80;;;17.10;99.90;;;;;;5044644;28;20468;-81
2023/08/01 02:21:22;;;;;;;12.83;10.07;;;17.10;99.90;;;;;;5036142;28;20521;-79
2023/08/01 02:23:48;;;;;;;16.13;11.80;;;17.00;99.90;;;;;;5031036;28;20585;-80
2023/08/01 02:26:15;;;;;;;15.17;10.50;;;17.00;99.90;;;;;;5050483;28;20575;-80
2023/08/01 02:28:42;;;;;;;12.23;10.93;;;17.10;99.90;;;;;;5051963;28;20744;-80
2023/08/01 02:31:12;;;;;;;17.40;12.37;;;17.00;99.90;;;;;;5052148;28;20546;-80
2023/08/01 02:33:38;;;;;;;12.57;11.30;;;17.10;99.90;;;;;;5051435;28;20507;-80
2023/08/01 02:36:05;;;;;;;14.37;12.87;;;17.10;99.90;;;;;;5051828;28;20454;-80
2023/08/01 02:38:32;;;;;;;15.10;13.03;;;17.00;99.90;;;;;;5045469;28;20606;-81
2023/08/01 02:40:59;;;;;;;19.53;14.20;;;17.00;99.90;;;;;;5041463;28;20453;-81
2023/08/01 02:43:26;;;;;;;13.80;12.37;;;17.00;99.90;;;;;;5037778;28;20484;-80
2023/08/01 02:45:53;;;;;;;13.47;12.17;;;17.00;99.90;;;;;;5046833;28;20446;-79
2023/08/01 02:48:21;;;;;;;13.23;11.90;;;17.10;99.90;;;;;;5040759;28;20564;-80
2023/08/01 02:50:48;;;;;;;15.00;13.17;;;17.10;99.90;;;;;;5040073;28;20450;-81
2023/08/01 02:53:14;;;;;;;14.17;12.23;;;17.10;99.90;;;;;;5047127;28;20454;-81
2023/08/01 02:55:41;;;;;;;20.00;14.73;;;17.10;99.90;;;;;;5041267;28;20506;-80
2023/08/01 02:58:08;;;;;;;14.97;13.40;;;17.10;99.90;;;;;;5038722;28;21074;-80
2023/08/01 03:00:39;;;;;;;13.83;12.13;;;17.10;99.90;;;;;;5040700;28;20814;-80
2023/08/01 03:03:06;;;;;;;20.13;13.87;;;17.10;99.90;;;;;;5041734;28;20574;-80
2023/08/01 03:05:37;;;;;;;16.80;13.00;;;17.10;99.90;;;;;;5042598;28;20499;-80
2023/08/01 03:08:04;;;;;;;14.80;12.07;;;17.10;99.90;;;;;;5038733;28;20477;-79
2023/08/01 03:10:30;;;;;;;19.30;13.63;;;17.20;99.90;;;;;;5039317;28;20443;-80
2023/08/01 03:12:57;;;;;;;15.33;12.63;;;17.10;99.90;;;;;;5039423;28;20450;-80
2023/08/01 03:15:24;;;;;;;15.17;13.57;;;17.20;99.90;;;;;;5036607;28;20441;-80
2023/08/01 03:17:51;;;;;;;41.10;15.30;;;17.10;99.90;;;;;;5048532;28;20469;-80
2023/08/01 03:20:18;;;;;;;18.30;14.23;;;17.10;99.90;;;;;;5053808;28;20506;-78
2023/08/01 03:22:46;;;;;;;20.10;14.43;;;17.00;99.90;;;;;;5058733;28;20430;-78
2023/08/01 03:25:13;;;;;;;23.87;17.40;;;17.10;99.90;;;;;;5039089;28;20485;-78
2023/08/01 03:27:39;;;;;;;20.40;15.40;;;17.00;99.90;;;;;;5050639;28;20496;-79
2023/08/01 03:30:08;;;;;;;19.03;14.97;;;17.00;99.90;;;;;;5053144;28;20485;-79
2023/08/01 03:32:36;;;;;;;19.43;15.73;;;17.00;99.90;;;;;;5041262;28;21110;-79
2023/08/01 03:35:04;;;;;;;20.07;15.53;;;16.90;99.90;;;;;;5036137;28;20453;-79
2023/08/01 03:37:31;;;;;;;18.07;15.40;;;16.90;99.90;;;;;;5036505;28;20470;-79
2023/08/01 03:39:59;;;;;;;17.90;15.40;;;16.90;99.90;;;;;;5036278;28;20458;-79
2023/08/01 03:42:25;;;;;;;23.60;16.87;;;16.90;99.90;;;;;;5039147;28;20457;-79
2023/08/01 03:44:52;;;;;;;17.10;13.50;;;16.90;99.90;;;;;;5043568;28;20485;-79
2023/08/01 03:47:19;;;;;;;17.77;14.90;;;16.90;99.90;;;;;;5047171;28;20461;-80
2023/08/01 03:49:46;;;;;;;19.53;14.70;;;16.80;99.90;;;;;;5051444;28;20522;-80
2023/08/01 03:52:13;;;;;;;18.73;15.63;;;16.80;99.90;;;;;;5055931;28;20463;-79
2023/08/01 03:54:39;;;;;;;22.47;15.47;;;16.80;99.90;;;;;;5056562;28;20462;-79
2023/08/01 03:57:07;;;;;;;18.67;15.33;;;16.80;99.90;;;;;;5043774;28;20472;-80
2023/08/01 03:59:34;;;;;;;16.50;13.83;;;16.80;99.90;;;;;;5042367;28;20863;-81
2023/08/01 04:02:01;;;;;;;19.77;15.60;;;16.90;99.90;;;;;;5040928;28;20456;-79
2023/08/01 04:04:28;;;;;;;19.43;15.20;;;16.80;99.90;;;;;;5038657;28;20508;-80
2023/08/01 04:06:55;;;;;;;20.80;15.50;;;16.80;99.90;;;;;;5048909;28;20509;-79
2023/08/01 05:21:53;;;;;;;15.10;8.55;;;16.70;99.90;;;;;;5297714;22;20488;-79
2023/08/01 05:25:03;;;;;;;12.10;8.27;;;16.60;99.90;;;;;;5067017;28;20230;-79
2023/08/01 05:27:54;;;;;;;7.27;6.53;;;16.60;99.90;;;;;;5092135;28;20516;-83
2023/08/01 05:30:20;;;;;;;9.50;7.55;;;16.60;99.90;;;;;;5039766;28;20966;-78
2023/08/01 05:32:47;;;;;;;13.37;7.00;;;16.40;99.90;;;;;;5041855;28;20242;-79
2023/08/01 05:35:14;;;;;;;9.07;7.10;;;16.60;99.90;;;;;;5032666;28;20516;-79
2023/08/01 05:37:42;;;;;;;6.20;5.40;;;16.60;99.90;;;;;;5034753;28;20506;-79
2023/08/01 05:40:10;;;;;;;10.83;7.77;;;16.60;99.90;;;;;;5040110;28;20456;-78
2023/08/01 05:42:37;;;;;;;11.60;8.67;;;16.70;99.90;;;;;;5031111;28;20477;-78
2023/08/01 05:45:05;;;;;;;13.30;8.50;;;16.70;99.90;;;;;;5048650;28;21026;-79
2023/08/01 05:47:32;;;;;;;12.50;8.50;;;16.70;99.90;;;;;;5052138;28;20926;-79
2023/08/01 05:49:59;;;;;;;10.17;6.83;;;16.80;99.90;;;;;;5039950;28;20453;-79
2023/08/01 05:52:28;;;;;;;14.57;9.17;;;16.80;99.90;;;;;;5052332;28;20473;-79
2023/08/01 06:36:45;;;;;;;16.80;12.80;;;18.10;99.90;;;;;;5634110;22;20643;-85
2023/08/01 06:39:11;;;;;;;16.93;14.30;;;18.10;99.90;;;;;;5058585;28;20471;-80
2023/08/01 06:41:38;;;;;;;19.17;12.90;;;18.10;99.90;;;;;;5053136;28;20463;-83
2023/08/01 06:44:05;;;;;;;15.93;13.77;;;17.90;99.90;;;;;;5051791;28;20458;-84
2023/08/01 06:46:32;;;;;;;15.30;12.13;;;18.00;99.90;;;;;;5061816;28;20485;-84
2023/08/01 06:48:59;;;;;;;15.60;13.07;;;18.20;99.90;;;;;;5061295;28;20459;-83
2023/08/01 06:51:26;;;;;;;15.37;13.80;;;18.40;99.90;;;;;;5060224;28;20894;-82
2023/08/01 06:53:55;;;;;;;15.93;14.10;;;18.30;99.90;;;;;;5061245;28;20529;-84
2023/08/01 06:56:22;;;;;;;15.43;13.73;;;18.40;99.90;;;;;;5060606;28;20438;-84
2023/08/01 06:58:48;;;;;;;13.70;11.40;;;18.50;99.90;;;;;;5055984;28;20520;-83
2023/08/01 07:01:15;;;;;;;16.03;12.40;;;18.60;99.90;;;;;;5054485;28;20479;-84
2023/08/01 07:03:42;;;;;;;14.10;11.47;;;18.90;99.90;;;;;;5058816;28;20469;-81
2023/08/01 07:06:10;;;;;;;13.47;11.00;;;19.00;99.90;;;;;;5053295;28;20483;-83
2023/08/01 07:08:36;;;;;;;12.90;10.50;;;18.90;99.90;;;;;;5047914;28;20489;-83
2023/08/01 07:11:05;;;;;;;15.37;10.10;;;18.80;99.90;;;;;;5050322;28;20489;-83
2023/08/01 07:13:31;;;;;;;14.80;9.30;;;18.50;99.90;;;;;;5053722;28;20474;-83
2023/08/01 07:15:59;;;;;;;11.60;8.73;;;18.20;99.90;;;;;;5056623;28;20978;-82
2023/08/01 07:18:26;;;;;;;12.67;8.73;;;18.20;99.90;;;;;;5053773;28;20470;-81
2023/08/01 07:21:00;;;;;;;7.80;6.63;;;18.10;99.90;;;;;;5055538;28;20468;-81
2023/08/01 07:23:27;;;;;;;9.67;7.30;;;18.10;99.90;;;;;;5054695;28;20433;-81
2023/08/01 07:25:54;;;;;;;6.73;5.03;;;18.20;99.90;;;;;;5059300;28;20521;-82
2023/08/01 08:30:31;;;;;;;4.43;2.80;;;23.00;99.90;;;;;;5706570;22;20550;-81
2023/08/01 08:33:00;;;;;;;16.80;3.50;;;22.80;99.90;;;;;;5067663;28;20441;-82
2023/08/01 08:35:27;;;;;;;5.37;2.37;;;22.10;99.90;;;;;;5067721;28;20450;-82
2023/08/01 08:37:54;;;;;;;5.37;2.90;;;21.70;99.90;;;;;;5066104;28;20466;-83
2023/08/01 08:40:21;;;;;;;5.93;2.77;;;21.50;99.90;;;;;;5074351;28;20457;-84
2023/08/01 08:42:49;;;;;;;7.27;3.80;;;22.40;99.90;;;;;;5078560;28;20521;-82
2023/08/01 08:45:20;;;;;;;3.70;2.73;;;22.60;99.90;;;;;;5072886;28;20550;-80
2023/08/01 08:47:54;;;;;;;8.20;3.10;;;23.00;99.90;;;;;;5075778;28;20445;-81
2023/08/01 08:50:22;;;;;;;4.00;2.10;;;23.30;99.90;;;;;;5065084;28;20867;-82
2023/08/01 08:52:49;;;;;;;5.50;2.40;;;24.30;99.90;;;;;;5077928;28;20452;-82
2023/08/01 08:55:16;;;;;;;4.80;2.07;;;25.30;99.90;;;;;;5076679;28;20446;-82
2023/08/01 08:57:46;;;;;;;6.57;2.20;;;26.50;99.90;;;;;;5078164;28;20517;-82
2023/08/01 09:00:14;;;;;;;3.50;2.10;;;26.60;99.00;;;;;;5067508;28;20438;-82
2023/08/01 09:02:41;;;;;;;3.33;2.10;;;26.60;97.70;;;;;;5069835;28;20502;-83
2023/08/01 09:05:09;;;;;;;6.07;2.47;;;25.20;99.60;;;;;;5064580;28;20605;-81
2023/08/01 09:07:42;;;;;;;4.23;1.67;;;25.30;99.90;;;;;;5062079;28;20453;-83
2023/08/01 09:10:09;;;;;;;2.67;1.70;;;25.10;99.90;;;;;;5068067;28;20437;-83
2023/08/01 09:12:37;;;;;;;5.33;2.10;;;25.10;99.90;;;;;;5068849;28;20480;-83
2023/08/01 09:15:05;;;;;;;2.10;1.40;;;25.20;99.90;;;;;;5069038;28;20469;-83
2023/08/01 09:17:32;;;;;;;3.30;1.60;;;24.20;99.90;;;;;;5062953;28;20501;-82
2023/08/01 09:20:05;;;;;;;3.90;2.53;;;24.10;99.90;;;;;;5062812;28;20450;-82
2023/08/01 09:22:42;;;;;;;3.43;1.50;;;24.70;99.90;;;;;;5073748;28;20588;-83
2023/08/01 09:25:09;;;;;;;5.33;1.43;;;25.20;99.90;;;;;;5068436;28;20460;-81
2023/08/01 09:27:36;;;;;;;2.07;1.40;;;25.70;98.30;;;;;;5089854;28;20468;-81
2023/08/01 09:30:08;;;;;;;3.77;1.87;;;25.90;97.80;;;;;;5085170;28;20520;-83
2023/08/01 09:32:35;;;;;;;2.90;1.77;;;26.40;96.80;;;;;;5092108;28;20457;-82
2023/08/01 09:35:03;;;;;;;3.67;1.60;;;27.30;96.00;;;;;;5091348;28;20505;-81
2023/08/01 09:37:53;;;;;;;3.00;1.37;;;26.50;92.90;;;;;;5086556;28;20508;-87
2023/08/01 09:40:21;;;;;;;2.00;1.23;;;25.90;95.30;;;;;;5092481;28;20487;-83
2023/08/01 09:42:47;;;;;;;3.20;1.40;;;25.80;95.60;;;;;;5087772;28;20447;-86
2023/08/01 09:45:15;;;;;;;3.37;1.57;;;26.10;95.60;;;;;;5081476;28;20518;-81
2023/08/01 09:48:08;;;;;;;3.10;2.40;;;25.70;95.40;;;;;;5096309;28;20449;-82
2023/08/01 09:50:45;;;;;;;2.23;1.33;;;24.80;96.80;;;;;;5088182;28;20449;-80
2023/08/01 09:53:13;;;;;;;5.20;2.40;;;23.70;99.30;;;;;;5092662;28;20469;-80
2023/08/01 09:55:42;;;;;;;3.93;1.97;;;22.30;99.90;;;;;;5088349;28;20496;-81
2023/08/01 09:58:11;;;;;;;2.90;1.60;;;21.70;99.90;;;;;;5094436;28;20739;-81
2023/08/01 10:00:38;;;;;;;7.33;2.63;;;21.30;99.90;;;;;;5090523;28;20434;-83
2023/08/01 10:03:06;;;;;;;1.87;1.57;;;21.20;99.90;;;;;;5090957;28;20440;-80
2023/08/01 10:05:35;;;;;;;2.47;1.43;;;21.70;99.90;;;;;;5091126;28;20531;-80
2023/08/01 10:08:03;;;;;;;4.67;2.27;;;22.00;99.90;;;;;;5090404;28;20453;-81
2023/08/01 10:10:32;;;;;;;5.20;1.50;;;21.90;99.90;;;;;;5082090;28;20457;-81
2023/08/01 10:12:59;;;;;;;2.60;2.00;;;21.70;99.90;;;;;;5086303;28;20433;-81
2023/08/01 10:15:26;;;;;;;2.87;1.93;;;21.40;99.90;;;;;;5065839;28;20477;-83
2023/08/01 10:17:53;;;;;;;4.37;1.97;;;21.30;99.90;;;;;;5062519;28;20511;-82
2023/08/01 10:20:22;;;;;;;4.90;2.17;;;21.30;99.90;;;;;;5065799;28;20465;-82
2023/08/01 10:22:50;;;;;;;5.30;2.00;;;21.80;99.90;;;;;;5065676;28;20553;-83
2023/08/01 10:25:18;;;;;;;5.53;2.27;;;22.30;99.90;;;;;;5072271;28;20481;-83
2023/08/01 10:27:46;;;;;;;1.60;1.20;;;23.20;99.90;;;;;;5075035;28;20434;-82
2023/08/01 10:30:13;;;;;;;2.30;1.73;;;23.50;99.90;;;;;;5062484;28;20457;-82
2023/08/01 10:32:41;;;;;;;3.37;1.60;;;23.20;99.90;;;;;;5066337;28;20441;-84
2023/08/01 10:35:08;;;;;;;1.57;0.97;;;23.30;99.90;;;;;;5071668;28;20544;-84
2023/08/01 10:37:42;;;;;;;3.10;1.63;;;23.60;99.90;;;;;;5069270;28;20450;-83
2023/08/01 10:40:09;;;;;;;2.70;1.40;;;22.60;99.90;;;;;;5067053;28;20484;-82
2023/08/01 10:42:41;;;;;;;11.93;2.07;;;22.20;99.90;;;;;;5070253;28;20517;-84
2023/08/01 10:45:21;;;;;;;2.30;1.30;;;21.70;99.90;;;;;;5075341;28;20472;-82
2023/08/01 10:47:48;;;;;;;3.13;1.50;;;21.50;99.90;;;;;;5072846;28;20449;-81
2023/08/01 10:50:16;;;;;;;2.13;1.47;;;21.50;99.90;;;;;;5088030;28;20450;-81
2023/08/01 10:52:44;;;;;;;4.37;1.40;;;21.40;99.90;;;;;;5069430;28;20446;-83
2023/08/01 10:55:11;;;;;;;2.10;1.30;;;21.50;99.90;;;;;;5087277;28;20458;-80
2023/08/01 10:57:40;;;;;;;2.60;1.30;;;21.40;99.90;;;;;;5091256;28;20502;-81
2023/08/01 11:00:10;;;;;;;2.13;1.50;;;21.20;99.90;;;;;;5092268;28;20424;-81
2023/08/01 11:02:37;;;;;;;4.57;1.67;;;21.30;99.90;;;;;;5089112;28;20433;-82
2023/08/01 11:05:07;;;;;;;4.13;1.23;;;21.60;99.90;;;;;;5078756;28;20447;-83
2023/08/01 11:07:35;;;;;;;3.23;1.17;;;21.90;99.90;;;;;;5088871;28;20445;-82
2023/08/01 11:10:06;;;;;;;2.00;1.13;;;22.40;99.90;;;;;;5082451;28;20470;-81
2023/08/01 11:12:36;;;;;;;2.00;1.10;;;22.80;99.90;;;;;;5084156;28;20453;-81
2023/08/01 11:15:05;;;;;;;2.80;1.10;;;23.00;99.90;;;;;;5077790;28;20442;-81
2023/08/01 11:17:34;;;;;;;1.93;1.10;;;22.50;99.90;;;;;;5085152;28;20440;-80
2023/08/01 11:20:07;;;;;;;2.97;1.13;;;22.30;99.90;;;;;;5091981;28;20445;-81
2023/08/01 11:22:34;;;;;;;2.57;1.30;;;22.20;99.90;;;;;;5091966;28;20441;-81
2023/08/01 11:25:01;;;;;;;1.83;1.00;;;22.20;99.90;;;;;;5080509;28;20441;-81
2023/08/01 11:27:28;;;;;;;1.63;0.90;;;22.10;99.90;;;;;;5088083;28;20492;-82
2023/08/01 11:29:55;;;;;;;3.77;1.40;;;21.90;99.90;;;;;;5086323;28;20453;-84
2023/08/01 11:32:23;;;;;;;6.43;1.53;;;21.80;99.90;;;;;;5080991;28;20510;-83
2023/08/01 11:34:51;;;;;;;3.63;1.00;;;21.50;99.90;;;;;;5081205;28;20458;-83
2023/08/01 11:37:21;;;;;;;1.80;0.90;;;21.20;99.90;;;;;;5082897;28;20460;-82
2023/08/01 11:39:48;;;;;;;2.13;1.30;;;21.10;99.90;;;;;;5081966;28;20503;-83
2023/08/01 11:42:17;;;;;;;2.50;1.33;;;21.00;99.90;;;;;;5083198;28;20440;-81
2023/08/01 11:44:44;;;;;;;1.83;1.20;;;21.10;99.90;;;;;;5072703;28;20453;-84
2023/08/01 11:47:13;;;;;;;1.87;1.00;;;21.40;99.90;;;;;;5080816;28;20476;-83
2023/08/01 11:49:45;;;;;;;2.17;1.40;;;21.60;99.90;;;;;;5073210;28;20507;-82
2023/08/01 11:52:23;;;;;;;1.57;1.00;;;21.70;99.90;;;;;;5067666;28;20444;-82
2023/08/01 11:54:50;;;;;;;2.80;1.10;;;22.20;99.90;;;;;;5072806;28;20435;-83
2023/08/01 11:57:18;;;;;;;2.07;1.20;;;22.50;99.90;;;;;;5068746;28;20445;-83
2023/08/01 11:59:49;;;;;;;3.67;1.53;;;22.60;99.90;;;;;;5056931;28;20497;-84
2023/08/01 12:02:22;;;;;;;2.00;1.20;;;22.60;99.90;;;;;;5055438;28;20437;-85
2023/08/01 12:04:50;;;;;;;2.00;1.20;;;22.20;99.90;;;;;;5059658;28;20451;-83
2023/08/01 12:07:18;;;;;;;6.50;1.63;;;22.20;99.90;;;;;;5056735;28;20566;-83
2023/08/01 12:09:45;;;;;;;4.27;2.30;;;22.30;99.90;;;;;;5051281;28;20463;-82
2023/08/01 12:12:12;;;;;;;3.50;1.60;;;22.50;99.90;;;;;;5058089;28;20450;-83
2023/08/01 12:14:42;;;;;;;3.63;1.17;;;22.60;99.90;;;;;;5045557;28;20455;-82
2023/08/01 12:17:09;;;;;;;1.47;0.93;;;22.80;99.90;;;;;;5056860;28;20439;-81
2023/08/01 12:19:36;;;;;;;2.37;0.97;;;22.70;99.90;;;;;;5050407;28;20531;-83
2023/08/01 12:22:03;;;;;;;2.57;1.17;;;22.80;99.90;;;;;;5055198;28;20449;-83
2023/08/01 12:24:31;;;;;;;5.97;1.40;;;23.00;99.90;;;;;;5056442;28;20537;-84
2023/08/01 12:26:58;;;;;;;2.40;1.37;;;22.90;99.90;;;;;;5058677;28;20520;-82
2023/08/01 12:29:25;;;;;;;3.70;1.20;;;22.20;99.90;;;;;;5050796;28;20462;-84
2023/08/01 12:31:52;;;;;;;2.40;1.07;;;22.20;99.90;;;;;;5061580;28;20494;-84
2023/08/01 12:34:19;;;;;;;2.00;1.20;;;22.20;99.90;;;;;;5050490;28;20450;-83
2023/08/01 12:36:46;;;;;;;2.50;1.87;;;22.30;99.90;;;;;;5057721;28;20472;-81
2023/08/01 12:39:13;;;;;;;4.90;1.43;;;22.10;99.90;;;;;;5053600;28;20455;-82
2023/08/01 12:41:41;;;;;;;3.80;1.90;;;21.60;99.90;;;;;;5067693;28;20469;-84
2023/08/01 12:44:08;;;;;;;4.13;1.67;;;21.10;99.90;;;;;;5071643;28;20453;-81
2023/08/01 12:46:35;;;;;;;4.73;2.20;;;20.80;99.90;;;;;;5057730;28;20484;-82
2023/08/01 12:49:02;;;;;;;2.60;1.50;;;20.50;99.90;;;;;;5070444;28;20551;-82
2023/08/01 12:51:29;;;;;;;2.37;1.30;;;20.50;99.90;;;;;;5068851;28;20472;-83
2023/08/01 12:53:56;;;;;;;4.80;1.50;;;20.70;99.90;;;;;;5069506;28;20433;-81
2023/08/01 12:56:23;;;;;;;2.33;1.20;;;21.00;99.90;;;;;;5063004;28;20478;-82
2023/08/01 12:58:51;;;;;;;1.87;1.10;;;21.20;99.90;;;;;;5061522;28;20501;-82
2023/08/01 13:01:18;;;;;;;4.83;2.03;;;21.50;99.90;;;;;;5066655;28;20496;-82
2023/08/01 13:03:45;;;;;;;5.33;1.57;;;21.80;99.90;;;;;;5061975;28;20455;-81
2023/08/01 13:06:13;;;;;;;3.97;2.00;;;22.10;99.90;;;;;;5050765;28;20489;-82
2023/08/01 13:08:40;;;;;;;2.00;1.40;;;22.20;99.90;;;;;;5050327;28;20469;-82
2023/08/01 13:11:14;;;;;;;3.43;2.90;;;22.10;99.90;;;;;;5055299;28;20441;-83
2023/08/01 13:13:42;;;;;;;6.80;2.70;;;21.80;99.90;;;;;;5066132;28;20850;-81
2023/08/01 13:16:10;;;;;;;7.03;3.53;;;21.60;99.90;;;;;;5064995;28;20527;-82
2023/08/01 13:18:43;;;;;;;4.90;1.83;;;21.20;99.90;;;;;;5068985;28;20508;-81
2023/08/01 13:21:10;;;;;;;1.50;1.03;;;20.70;99.90;;;;;;5062800;28;20456;-81
2023/08/01 13:23:37;;;;;;;2.93;1.97;;;20.30;99.90;;;;;;5068021;28;20468;-81
2023/08/01 13:26:04;;;;;;;3.30;1.90;;;20.20;99.90;;;;;;5064008;28;20451;-82
2023/08/01 13:28:31;;;;;;;5.03;1.53;;;20.20;99.90;;;;;;5070572;28;20531;-81
2023/08/01 13:30:58;;;;;;;2.03;1.33;;;20.10;99.90;;;;;;5063527;28;20494;-81
2023/08/01 13:33:26;;;;;;;2.10;1.43;;;20.20;99.90;;;;;;5057619;28;20509;-81
2023/08/01 13:35:53;;;;;;;2.53;1.60;;;20.40;99.90;;;;;;5067956;28;20516;-81
2023/08/01 13:38:23;;;;;;;2.87;1.53;;;20.50;99.90;;;;;;5079183;28;20529;-81
2023/08/01 13:40:50;;;;;;;3.47;1.37;;;20.60;99.90;;;;;;5075199;28;20426;-82
2023/08/01 13:43:19;;;;;;;3.90;1.33;;;20.60;99.90;;;;;;5075412;28;20438;-80
2023/08/01 13:45:46;;;;;;;3.60;1.63;;;20.50;99.90;;;;;;5075141;28;20460;-81
2023/08/01 13:48:13;;;;;;;3.13;1.87;;;20.80;99.90;;;;;;5074543;28;20480;-80
2023/08/01 13:50:41;;;;;;;2.50;1.00;;;21.00;99.90;;;;;;5070482;28;20438;-81
2023/08/01 13:53:11;;;;;;;1.90;1.70;;;21.00;99.90;;;;;;5067308;28;20458;-81
2023/08/01 13:55:38;;;;;;;5.87;1.50;;;21.00;99.90;;;;;;5062096;28;20469;-82
2023/08/01 13:58:07;;;;;;;3.20;1.80;;;21.20;99.90;;;;;;5055388;28;20466;-83
2023/08/01 14:00:34;;;;;;;3.00;1.67;;;21.10;99.90;;;;;;5071976;28;20536;-81
2023/08/01 14:03:02;;;;;;;3.30;1.30;;;21.10;99.90;;;;;;5062509;28;20435;-83
2023/08/01 14:05:29;;;;;;;1.57;1.03;;;21.10;99.90;;;;;;5070175;28;20454;-82
2023/08/01 14:08:01;;;;;;;3.23;1.20;;;21.20;99.90;;;;;;5077839;28;20569;-80
2023/08/01 14:10:34;;;;;;;2.70;1.30;;;21.50;99.90;;;;;;5074835;28;20446;-81
2023/08/01 14:13:01;;;;;;;5.83;1.00;;;21.70;99.90;;;;;;5063593;28;20457;-81
2023/08/01 14:15:28;;;;;;;1.80;1.17;;;21.70;99.90;;;;;;5060352;28;20467;-82
2023/08/01 14:17:55;;;;;;;2.70;1.27;;;21.70;99.90;;;;;;5062471;28;20481;-82
2023/08/01 14:20:24;;;;;;;3.90;1.10;;;21.60;99.90;;;;;;5054297;28;20912;-81
2023/08/01 14:22:54;;;;;;;3.23;1.67;;;21.60;99.90;;;;;;5068585;28;20450;-82
2023/08/01 14:25:27;;;;;;;2.70;1.27;;;21.40;99.90;;;;;;5071334;28;20441;-82
2023/08/01 14:28:05;;;;;;;5.50;1.90;;;21.40;99.90;;;;;;5071387;28;20484;-82
2023/08/01 14:30:40;;;;;;;6.63;1.63;;;21.50;99.90;;;;;;5072809;28;20463;-83
2023/08/01 14:51:35;;;;;;;2.97;1.20;;;21.00;99.90;;;;;;5532495;22;20977;-83
2023/08/01 14:54:02;;;;;;;3.60;1.80;;;21.20;99.90;;;;;;5065934;28;20474;-83
2023/08/01 14:56:30;;;;;;;4.83;1.60;;;21.30;99.90;;;;;;5065948;28;20446;-82
2023/08/01 14:59:04;;;;;;;2.23;1.30;;;21.50;99.90;;;;;;5056164;28;20814;-83
2023/08/01 15:01:34;;;;;;;2.53;1.23;;;21.20;99.90;;;;;;5051308;28;20443;-82
2023/08/01 15:04:05;;;;;;;1.73;1.27;;;21.40;99.90;;;;;;5061576;28;20478;-83
2023/08/01 15:06:34;;;;;;;6.73;1.73;;;21.40;99.90;;;;;;5054820;28;20509;-81
2023/08/01 15:09:22;;;;;;;11.07;2.13;;;21.60;99.90;;;;;;5050899;28;20475;-82
2023/08/01 15:12:26;;;;;;;2.13;1.43;;;21.50;99.90;;;;;;5035778;28;20479;-81
2023/08/01 15:14:53;;;;;;;7.60;3.97;;;21.30;99.90;;;;;;5059198;28;20450;-85
2023/08/01 15:17:40;;;;;;;7.63;2.53;;;20.90;99.90;;;;;;5056739;28;20429;-82
2023/08/01 15:20:19;;;;;;;4.00;1.77;;;20.90;99.90;;;;;;5054302;28;20434;-81
2023/08/01 15:22:51;;;;;;;6.03;1.83;;;20.70;99.90;;;;;;5049475;28;20435;-83
2023/08/01 15:25:31;;;;;;;5.07;1.47;;;20.20;99.90;;;;;;5053816;28;20468;-82
2023/08/01 15:27:59;;;;;;;3.43;2.10;;;19.90;99.90;;;;;;5060706;28;20563;-82
2023/08/01 15:30:26;;;;;;;3.27;1.30;;;19.60;99.90;;;;;;5055769;28;20451;-83
2023/08/01 15:32:56;;;;;;;3.77;1.90;;;19.60;99.90;;;;;;5051606;28;20463;-82
2023/08/01 15:35:32;;;;;;;3.07;1.70;;;19.50;99.90;;;;;;5064086;28;20448;-82
2023/08/01 15:38:10;;;;;;;5.03;3.50;;;19.60;99.90;;;;;;5056737;28;20490;-82
2023/08/01 15:40:44;;;;;;;2.73;1.40;;;20.00;99.90;;;;;;5052569;28;20494;-82
2023/08/01 15:43:11;;;;;;;3.60;1.60;;;20.10;99.90;;;;;;5052686;28;20470;-72
2023/08/01 15:45:37;;;;;;;3.73;1.57;;;20.30;99.90;;;;;;5026176;28;20436;-72
2023/08/01 15:48:05;;;;;;;3.00;1.37;;;20.40;99.90;;;;;;5036960;28;20572;-69
2023/08/01 15:50:32;;;;;;;4.47;1.87;;;20.30;99.90;;;;;;5035224;28;20489;-68
2023/08/01 15:53:00;;;;;;;2.90;1.47;;;20.30;99.90;;;;;;5035836;28;20450;-71
2023/08/01 15:55:27;;;;;;;4.63;1.73;;;20.10;99.90;;;;;;5046746;28;20450;-67
2023/08/01 15:57:53;;;;;;;5.90;2.90;;;20.20;99.90;;;;;;5037082;28;20796;-68
2023/08/01 16:00:20;;;;;;;4.33;1.90;;;20.30;99.90;;;;;;5038699;28;20463;-68